sensor_id;sensor_type;location;lat;lon;timestamp;pressure;altitude;pressure_sealevel;temperature;humidity
73845;BME280;62186;55.016;73.348;2022-07-11T00:02:22;100057.41;;;27.69;43.49
73845;BME280;62186;55.016;73.348;2022-07-11T00:04:49;100073.34;;;27.70;43.27
73845;BME280;62186;55.016;73.348;2022-07-11T00:07:15;100068.44;;;27.72;43.37
73845;BME280;62186;55.016;73.348;2022-07-11T00:09:42;100068.16;;;27.74;43.11
73845;BME280;62186;55.016;73.348;2022-07-11T00:12:11;100072.44;;;27.75;43.19
73845;BME280;62186;55.016;73.348;2022-07-11T00:14:39;100074.06;;;27.76;43.23
73845;BME280;62186;55.016;73.348;2022-07-11T00:17:07;100072.97;;;27.77;43.45
73845;BME280;62186;55.016;73.348;2022-07-11T00:19:44;100064.56;;;27.79;43.34
73845;BME280;62186;55.016;73.348;2022-07-11T00:22:12;100079.69;;;27.80;43.48
73845;BME280;62186;55.016;73.348;2022-07-11T00:24:38;100080.81;;;27.79;43.52
73845;BME280;62186;55.016;73.348;2022-07-11T00:27:07;100069.66;;;27.80;43.57
73845;BME280;62186;55.016;73.348;2022-07-11T00:29:34;100069.38;;;27.82;43.75
73845;BME280;62186;55.016;73.348;2022-07-11T00:32:00;100062.88;;;27.83;43.35
73845;BME280;62186;55.016;73.348;2022-07-11T00:34:27;100064.78;;;27.82;43.39
73845;BME280;62186;55.016;73.348;2022-07-11T00:36:53;100073.41;;;27.84;43.56
73845;BME280;62186;55.016;73.348;2022-07-11T00:39:24;100072.59;;;27.84;43.61
73845;BME280;62186;55.016;73.348;2022-07-11T00:41:51;100071.50;;;27.85;43.96
73845;BME280;62186;55.016;73.348;2022-07-11T00:44:18;100074.19;;;27.85;43.94
73845;BME280;62186;55.016;73.348;2022-07-11T00:46:45;100059.53;;;27.72;43.88
73845;BME280;62186;55.016;73.348;2022-07-11T00:49:20;100079.63;;;27.85;43.98
73845;BME280;62186;55.016;73.348;2022-07-11T00:51:48;100088.53;;;27.85;43.61
73845;BME280;62186;55.016;73.348;2022-07-11T00:54:16;100083.66;;;27.87;44.07
73845;BME280;62186;55.016;73.348;2022-07-11T00:56:43;100073.13;;;27.86;44.15
73845;BME280;62186;55.016;73.348;2022-07-11T00:59:09;100071.19;;;27.86;44.15
73845;BME280;62186;55.016;73.348;2022-07-11T01:01:37;100080.13;;;27.87;44.59
73845;BME280;62186;55.016;73.348;2022-07-11T01:04:04;100080.41;;;27.85;44.08
73845;BME280;62186;55.016;73.348;2022-07-11T01:06:31;100071.19;;;27.86;44.38
73845;BME280;62186;55.016;73.348;2022-07-11T01:08:57;100069.56;;;27.85;44.51
73845;BME280;62186;55.016;73.348;2022-07-11T01:11:33;100064.16;;;27.85;44.40
73845;BME280;62186;55.016;73.348;2022-07-11T01:13:59;100072.00;;;27.87;44.32
73845;BME280;62186;55.016;73.348;2022-07-11T01:16:30;100074.19;;;27.85;44.25
73845;BME280;62186;55.016;73.348;2022-07-11T01:18:57;100073.63;;;27.88;44.40
73845;BME280;62186;55.016;73.348;2022-07-11T01:21:32;100074.41;;;27.88;44.55
73845;BME280;62186;55.016;73.348;2022-07-11T01:24:00;100086.06;;;27.89;44.43
73845;BME280;62186;55.016;73.348;2022-07-11T01:26:28;100083.34;;;27.89;44.22
73845;BME280;62186;55.016;73.348;2022-07-11T01:28:55;100089.88;;;27.88;44.34
73845;BME280;62186;55.016;73.348;2022-07-11T01:31:23;100090.66;;;27.88;44.39
73845;BME280;62186;55.016;73.348;2022-07-11T01:33:50;100092.78;;;27.91;44.41
73845;BME280;62186;55.016;73.348;2022-07-11T01:36:17;100088.47;;;27.90;44.43
73845;BME280;62186;55.016;73.348;2022-07-11T01:38:44;100087.38;;;27.91;44.25
73845;BME280;62186;55.016;73.348;2022-07-11T01:41:11;100075.41;;;27.79;44.32
73845;BME280;62186;55.016;73.348;2022-07-11T01:43:37;100095.50;;;27.91;44.91
73845;BME280;62186;55.016;73.348;2022-07-11T01:46:04;100097.94;;;27.93;44.81
73845;BME280;62186;55.016;73.348;2022-07-11T01:48:30;100097.94;;;27.93;44.92
73845;BME280;62186;55.016;73.348;2022-07-11T01:50:57;100091.72;;;27.92;44.85
73845;BME280;62186;55.016;73.348;2022-07-11T01:53:28;100089.00;;;27.92;45.05
73845;BME280;62186;55.016;73.348;2022-07-11T01:55:54;100090.66;;;27.88;44.93
73845;BME280;62186;55.016;73.348;2022-07-11T01:58:21;100095.22;;;27.93;45.25
73845;BME280;62186;55.016;73.348;2022-07-11T02:00:47;100093.06;;;27.90;45.36
73845;BME280;62186;55.016;73.348;2022-07-11T02:03:14;100102.28;;;27.94;45.09
73845;BME280;62186;55.016;73.348;2022-07-11T02:05:40;100101.44;;;27.93;45.41
73845;BME280;62186;55.016;73.348;2022-07-11T02:08:11;100104.16;;;27.93;45.67
73845;BME280;62186;55.016;73.348;2022-07-11T02:10:48;100106.56;;;27.95;45.38
73845;BME280;62186;55.016;73.348;2022-07-11T02:13:19;100107.38;;;27.96;45.71
73845;BME280;62186;55.016;73.348;2022-07-11T02:15:46;100103.06;;;27.94;45.94
73845;BME280;62186;55.016;73.348;2022-07-11T02:18:14;100101.97;;;27.96;45.70
73845;BME280;62186;55.016;73.348;2022-07-11T02:20:48;100096.56;;;27.96;45.83
73845;BME280;62186;55.016;73.348;2022-07-11T02:23:19;100113.31;;;27.98;45.94
73845;BME280;62186;55.016;73.348;2022-07-11T02:25:48;100104.69;;;27.96;46.21
73845;BME280;62186;55.016;73.348;2022-07-11T02:28:14;100112.81;;;27.96;46.19
73845;BME280;62186;55.016;73.348;2022-07-11T02:30:43;100109.47;;;27.99;45.98
73845;BME280;62186;55.016;73.348;2022-07-11T02:33:12;100114.09;;;27.98;46.35
73845;BME280;62186;55.016;73.348;2022-07-11T02:35:45;100106.78;;;27.99;46.14
73845;BME280;62186;55.016;73.348;2022-07-11T02:38:15;100106.78;;;27.99;46.16
73845;BME280;62186;55.016;73.348;2022-07-11T02:40:41;100112.19;;;27.99;46.54
73845;BME280;62186;55.016;73.348;2022-07-11T02:43:08;100113.81;;;28.00;46.58
73845;BME280;62186;55.016;73.348;2022-07-11T02:45:34;100110.00;;;28.01;46.75
73845;BME280;62186;55.016;73.348;2022-07-11T02:48:02;100118.16;;;28.01;46.64
73845;BME280;62186;55.016;73.348;2022-07-11T02:50:28;100116.22;;;28.01;46.79
73845;BME280;62186;55.016;73.348;2022-07-11T02:52:55;100120.03;;;28.00;46.74
73845;BME280;62186;55.016;73.348;2022-07-11T02:55:21;100127.06;;;28.01;46.40
73845;BME280;62186;55.016;73.348;2022-07-11T02:57:48;100117.84;;;28.02;46.67
73845;BME280;62186;55.016;73.348;2022-07-11T03:00:16;100119.44;;;28.03;46.62
73845;BME280;62186;55.016;73.348;2022-07-11T03:02:44;100118.66;;;28.03;46.07
73845;BME280;62186;55.016;73.348;2022-07-11T03:05:11;100118.66;;;28.03;46.63
73845;BME280;62186;55.016;73.348;2022-07-11T03:07:39;100119.16;;;28.05;46.33
73845;BME280;62186;55.016;73.348;2022-07-11T03:10:10;100121.84;;;28.05;46.79
73845;BME280;62186;55.016;73.348;2022-07-11T03:12:36;100126.19;;;28.06;47.03
73845;BME280;62186;55.016;73.348;2022-07-11T03:15:04;100122.34;;;28.07;46.46
73845;BME280;62186;55.016;73.348;2022-07-11T03:17:32;100133.19;;;28.07;46.86
73845;BME280;62186;55.016;73.348;2022-07-11T03:19:58;100126.69;;;28.08;46.92
73845;BME280;62186;55.016;73.348;2022-07-11T03:22:30;100129.69;;;28.06;46.63
73845;BME280;62186;55.016;73.348;2022-07-11T03:24:58;100133.72;;;28.09;46.46
73845;BME280;62186;55.016;73.348;2022-07-11T03:27:29;100128.81;;;28.11;47.14
73845;BME280;62186;55.016;73.348;2022-07-11T03:29:58;100137.72;;;28.11;47.14
73845;BME280;62186;55.016;73.348;2022-07-11T03:32:24;100129.41;;;28.08;46.78
73845;BME280;62186;55.016;73.348;2022-07-11T03:34:51;100135.53;;;28.13;46.76
73845;BME280;62186;55.016;73.348;2022-07-11T03:37:36;100139.34;;;28.12;46.70
73845;BME280;62186;55.016;73.348;2022-07-11T03:40:09;100140.66;;;28.15;46.68
73845;BME280;62186;55.016;73.348;2022-07-11T03:42:36;100139.84;;;28.15;46.50
73845;BME280;62186;55.016;73.348;2022-07-11T03:45:03;100149.31;;;28.17;46.24
73845;BME280;62186;55.016;73.348;2022-07-11T03:47:40;100145.78;;;28.17;46.13
73845;BME280;62186;55.016;73.348;2022-07-11T03:50:06;100155.25;;;28.19;45.93
73845;BME280;62186;55.016;73.348;2022-07-11T03:52:34;100156.81;;;28.20;46.61
73845;BME280;62186;55.016;73.348;2022-07-11T03:55:01;100154.66;;;28.22;46.34
73845;BME280;62186;55.016;73.348;2022-07-11T03:57:27;100151.13;;;28.22;46.55
73845;BME280;62186;55.016;73.348;2022-07-11T03:59:54;100146.81;;;28.21;46.12
73845;BME280;62186;55.016;73.348;2022-07-11T04:02:20;100153.25;;;28.25;46.16
73845;BME280;62186;55.016;73.348;2022-07-11T04:04:46;100149.44;;;28.26;46.15
73845;BME280;62186;55.016;73.348;2022-07-11T04:07:13;100154.84;;;28.26;46.44
73845;BME280;62186;55.016;73.348;2022-07-11T04:09:40;100152.44;;;28.24;46.65
73845;BME280;62186;55.016;73.348;2022-07-11T04:12:12;100148.31;;;28.27;46.34
73845;BME280;62186;55.016;73.348;2022-07-11T04:14:44;100145.31;;;28.28;46.44
73845;BME280;62186;55.016;73.348;2022-07-11T04:17:16;100146.19;;;28.24;46.52
73845;BME280;62186;55.016;73.348;2022-07-11T04:19:42;100157.47;;;28.31;46.52
73845;BME280;62186;55.016;73.348;2022-07-11T04:22:09;100147.22;;;28.28;46.45
73845;BME280;62186;55.016;73.348;2022-07-11T04:24:35;100158.28;;;28.31;46.18
73845;BME280;62186;55.016;73.348;2022-07-11T04:27:02;100147.44;;;28.31;46.28
73845;BME280;62186;55.016;73.348;2022-07-11T04:29:28;100144.81;;;28.26;46.25
73845;BME280;62186;55.016;73.348;2022-07-11T04:31:55;100151.47;;;28.34;46.54
73845;BME280;62186;55.016;73.348;2022-07-11T04:34:21;100139.47;;;28.21;46.19
73845;BME280;62186;55.016;73.348;2022-07-11T04:36:48;100159.59;;;28.34;46.22
73845;BME280;62186;55.016;73.348;2022-07-11T04:39:14;100157.09;;;28.38;46.28
73845;BME280;62186;55.016;73.348;2022-07-11T04:41:41;100153.06;;;28.35;46.53
73845;BME280;62186;55.016;73.348;2022-07-11T04:44:07;100159.81;;;28.38;46.89
73845;BME280;62186;55.016;73.348;2022-07-11T04:46:34;100165.22;;;28.38;46.56
73845;BME280;62186;55.016;73.348;2022-07-11T04:49:09;100166.81;;;28.39;46.54
73845;BME280;62186;55.016;73.348;2022-07-11T04:51:36;100159.50;;;28.39;46.49
73845;BME280;62186;55.016;73.348;2022-07-11T04:54:03;100164.66;;;28.41;46.73
73845;BME280;62186;55.016;73.348;2022-07-11T04:56:29;100162.72;;;28.41;46.81
73845;BME280;62186;55.016;73.348;2022-07-11T04:58:56;100166.25;;;28.42;46.81
73845;BME280;62186;55.016;73.348;2022-07-11T05:01:22;100160.81;;;28.42;46.52
73845;BME280;62186;55.016;73.348;2022-07-11T05:03:56;100153.28;;;28.39;46.91
73845;BME280;62186;55.016;73.348;2022-07-11T05:06:23;100154.81;;;28.45;46.54
73845;BME280;62186;55.016;73.348;2022-07-11T05:08:49;100148.28;;;28.46;46.87
73845;BME280;62186;55.016;73.348;2022-07-11T05:11:16;100150.72;;;28.47;47.25
73845;BME280;62186;55.016;73.348;2022-07-11T05:13:42;100153.91;;;28.49;48.02
73845;BME280;62186;55.016;73.348;2022-07-11T05:16:09;100154.72;;;28.50;48.04
73845;BME280;62186;55.016;73.348;2022-07-11T05:18:40;100147.91;;;28.53;48.55
73845;BME280;62186;55.016;73.348;2022-07-11T05:21:12;100148.69;;;28.53;47.94
73845;BME280;62186;55.016;73.348;2022-07-11T05:23:38;100158.19;;;28.56;48.09
73845;BME280;62186;55.016;73.348;2022-07-11T05:26:04;100149.72;;;28.57;48.38
73845;BME280;62186;55.016;73.348;2022-07-11T05:28:31;100149.72;;;28.57;48.35
73845;BME280;62186;55.016;73.348;2022-07-11T05:30:57;100150.25;;;28.59;47.89
73845;BME280;62186;55.016;73.348;2022-07-11T05:33:24;100150.25;;;28.59;47.72
73845;BME280;62186;55.016;73.348;2022-07-11T05:35:50;100162.69;;;28.60;47.41
73845;BME280;62186;55.016;73.348;2022-07-11T05:38:16;100149.13;;;28.60;47.45
73845;BME280;62186;55.016;73.348;2022-07-11T05:40:43;100156.19;;;28.61;47.41
73845;BME280;62186;55.016;73.348;2022-07-11T05:43:10;100143.72;;;28.60;47.40
73845;BME280;62186;55.016;73.348;2022-07-11T05:45:37;100152.44;;;28.57;47.76
73845;BME280;62186;55.016;73.348;2022-07-11T05:48:03;100163.19;;;28.62;47.62
73845;BME280;62186;55.016;73.348;2022-07-11T05:50:30;100159.38;;;28.63;47.62
73845;BME280;62186;55.016;73.348;2022-07-11T05:52:56;100155.06;;;28.62;47.41
73845;BME280;62186;55.016;73.348;2022-07-11T05:55:23;100154.75;;;28.64;47.09
73845;BME280;62186;55.016;73.348;2022-07-11T05:57:50;100156.69;;;28.63;47.21
73845;BME280;62186;55.016;73.348;2022-07-11T06:00:16;100149.34;;;28.64;47.62
73845;BME280;62186;55.016;73.348;2022-07-11T06:02:43;100152.06;;;28.64;47.29
73845;BME280;62186;55.016;73.348;2022-07-11T06:05:11;100154.47;;;28.65;47.76
73845;BME280;62186;55.016;73.348;2022-07-11T06:07:38;100152.88;;;28.64;48.37
73845;BME280;62186;55.016;73.348;2022-07-11T06:10:23;100151.75;;;28.65;48.18
73845;BME280;62186;55.016;73.348;2022-07-11T06:12:49;100149.78;;;28.71;47.98
73845;BME280;62186;55.016;73.348;2022-07-11T06:15:16;100152.09;;;28.78;47.86
73845;BME280;62186;55.016;73.348;2022-07-11T06:17:47;100152.00;;;28.83;47.89
73845;BME280;62186;55.016;73.348;2022-07-11T06:20:13;100144.84;;;28.87;47.78
73845;BME280;62186;55.016;73.348;2022-07-11T06:22:45;100155.59;;;28.92;47.65
73845;BME280;62186;55.016;73.348;2022-07-11T06:25:12;100149.47;;;29.00;47.61
73845;BME280;62186;55.016;73.348;2022-07-11T06:27:48;100158.63;;;29.04;48.17
73845;BME280;62186;55.016;73.348;2022-07-11T06:30:14;100155.00;;;29.09;48.35
73845;BME280;62186;55.016;73.348;2022-07-11T06:32:41;100152.00;;;29.11;48.16
73845;BME280;62186;55.016;73.348;2022-07-11T06:35:08;100159.16;;;29.20;48.08
73845;BME280;62186;55.016;73.348;2022-07-11T06:37:34;100156.03;;;29.27;47.71
73845;BME280;62186;55.016;73.348;2022-07-11T06:40:01;100159.13;;;29.34;47.21
73845;BME280;62186;55.016;73.348;2022-07-11T06:42:28;100157.13;;;29.40;46.41
73845;BME280;62186;55.016;73.348;2022-07-11T06:44:55;100153.50;;;29.45;46.13
73845;BME280;62186;55.016;73.348;2022-07-11T06:47:33;100154.00;;;29.47;46.54
73845;BME280;62186;55.016;73.348;2022-07-11T06:49:59;100152.78;;;29.53;46.69
73845;BME280;62186;55.016;73.348;2022-07-11T06:52:26;100148.66;;;29.55;46.39
73845;BME280;62186;55.016;73.348;2022-07-11T06:54:53;100143.81;;;29.52;46.38
73845;BME280;62186;55.016;73.348;2022-07-11T06:57:19;100142.91;;;29.57;46.18
73845;BME280;62186;55.016;73.348;2022-07-11T06:59:46;100145.63;;;29.57;46.68
73845;BME280;62186;55.016;73.348;2022-07-11T07:02:12;100153.78;;;29.57;46.41
73845;BME280;62186;55.016;73.348;2022-07-11T07:04:39;100159.22;;;29.57;46.86
73845;BME280;62186;55.016;73.348;2022-07-11T07:07:05;100141.91;;;29.53;46.89
73845;BME280;62186;55.016;73.348;2022-07-11T07:09:32;100154.16;;;29.64;46.28
73845;BME280;62186;55.016;73.348;2022-07-11T07:12:01;100154.97;;;29.65;46.39
73845;BME280;62186;55.016;73.348;2022-07-11T07:14:32;100156.28;;;29.67;47.45
73845;BME280;62186;55.016;73.348;2022-07-11T07:16:59;100152.63;;;29.72;46.67
73845;BME280;62186;55.016;73.348;2022-07-11T07:19:28;100150.13;;;29.75;46.21
73845;BME280;62186;55.016;73.348;2022-07-11T07:22:04;100150.13;;;29.75;46.15
73845;BME280;62186;55.016;73.348;2022-07-11T07:24:35;100138.44;;;29.75;46.72
73845;BME280;62186;55.016;73.348;2022-07-11T07:27:05;100146.69;;;29.84;46.37
73845;BME280;62186;55.016;73.348;2022-07-11T07:29:31;100148.28;;;29.85;46.55
73845;BME280;62186;55.016;73.348;2022-07-11T07:31:59;100154.91;;;29.92;46.95
73845;BME280;62186;55.016;73.348;2022-07-11T07:34:26;100157.19;;;29.99;45.81
73845;BME280;62186;55.016;73.348;2022-07-11T07:36:52;100141.38;;;30.01;45.81
73845;BME280;62186;55.016;73.348;2022-07-11T07:39:19;100148.94;;;30.04;46.20
73845;BME280;62186;55.016;73.348;2022-07-11T07:41:45;100151.81;;;30.08;46.69
73845;BME280;62186;55.016;73.348;2022-07-11T07:44:12;100152.31;;;30.10;46.53
73845;BME280;62186;55.016;73.348;2022-07-11T07:46:38;100157.31;;;30.16;46.48
73845;BME280;62186;55.016;73.348;2022-07-11T07:49:05;100156.53;;;30.16;45.92
73845;BME280;62186;55.016;73.348;2022-07-11T07:51:39;100158.44;;;30.15;46.04
73845;BME280;62186;55.016;73.348;2022-07-11T07:54:05;100156.69;;;30.20;46.01
73845;BME280;62186;55.016;73.348;2022-07-11T07:56:31;100157.84;;;30.19;46.24
73845;BME280;62186;55.016;73.348;2022-07-11T07:58:58;100150.16;;;30.21;46.13
73845;BME280;62186;55.016;73.348;2022-07-11T08:01:24;100164.72;;;30.25;45.90
73845;BME280;62186;55.016;73.348;2022-07-11T08:04:07;100172.56;;;30.26;45.72
73845;BME280;62186;55.016;73.348;2022-07-11T08:06:35;100161.41;;;30.28;46.57
73845;BME280;62186;55.016;73.348;2022-07-11T08:09:05;100174.19;;;30.27;46.25
73845;BME280;62186;55.016;73.348;2022-07-11T08:11:33;100181.56;;;30.27;46.64
73845;BME280;62186;55.016;73.348;2022-07-11T08:14:10;100183.97;;;30.28;46.32
